Time;durP1;ratioP1;P1;durP2;ratioP2;P2;SDS_P1;SDS_P2;PMS_P1;PMS_P2;Temp;Humidity;BMP_temperature;BMP_pressure;BME280_temperature;BME280_humidity;BME280_pressure;Samples;Min_cycle;Max_cycle;Signal;HPM_P1;HPM_P2
2021/11/13 00:00:12;;;;;;;150.05;62.55;;;;;;;;;;5090671;28;20122;-62
2021/11/13 00:02:38;;;;;;;138.23;57.70;;;;;;;;;;5094210;28;20028;-62
2021/11/13 00:05:04;;;;;;;131.05;59.05;;;;;;;;;;5093223;28;20048;-61
2021/11/13 00:07:31;;;;;;;128.18;57.03;;;;;;;;;;5092276;28;20048;-61
2021/11/13 00:09:57;;;;;;;126.32;58.28;;;;;;;;;;5091901;28;20028;-61
2021/11/13 00:12:23;;;;;;;137.65;61.58;;;;;;;;;;5093256;28;20048;-62
2021/11/13 00:14:49;;;;;;;138.07;59.38;;;;;;;;;;5090900;28;20478;-62
2021/11/13 00:17:16;;;;;;;124.65;57.60;;;;;;;;;;5093119;28;20555;-62
2021/11/13 00:19:43;;;;;;;127.78;58.85;;;;;;;;;;5101052;28;20090;-62
2021/11/13 00:22:09;;;;;;;131.57;59.17;;;;;;;;;;5096155;28;20047;-61
2021/11/13 00:24:36;;;;;;;130.35;57.00;;;;;;;;;;5093252;28;20093;-62
2021/11/13 00:27:04;;;;;;;128.48;56.83;;;;;;;;;;5088803;28;20060;-61
2021/11/13 00:29:30;;;;;;;133.77;59.00;;;;;;;;;;5098633;28;20036;-62
2021/11/13 00:31:56;;;;;;;128.35;56.95;;;;;;;;;;5097747;28;20074;-62
2021/11/13 00:34:22;;;;;;;132.80;60.92;;;;;;;;;;5097402;27;20432;-62
2021/11/13 00:36:49;;;;;;;121.00;56.50;;;;;;;;;;5092713;28;20494;-62
2021/11/13 00:39:15;;;;;;;129.32;58.33;;;;;;;;;;5091472;28;20398;-62
2021/11/13 00:41:41;;;;;;;150.50;62.22;;;;;;;;;;5105814;27;20037;-61
2021/11/13 00:44:07;;;;;;;130.63;60.10;;;;;;;;;;5093794;28;20044;-62
2021/11/13 00:46:34;;;;;;;133.18;61.38;;;;;;;;;;5090436;28;20054;-62
2021/11/13 00:49:00;;;;;;;123.32;59.25;;;;;;;;;;5091550;28;20085;-61
2021/11/13 00:51:26;;;;;;;131.38;58.97;;;;;;;;;;5100457;27;20074;-62
2021/11/13 00:53:52;;;;;;;142.02;61.75;;;;;;;;;;5091027;28;20452;-62
2021/11/13 00:56:19;;;;;;;129.80;58.92;;;;;;;;;;5091519;28;20080;-62
2021/11/13 00:58:47;;;;;;;123.45;57.83;;;;;;;;;;5097405;28;20035;-62
2021/11/13 01:01:13;;;;;;;114.82;56.72;;;;;;;;;;5086438;28;20048;-62
2021/11/13 01:03:39;;;;;;;122.70;56.40;;;;;;;;;;5089216;28;20135;-62
2021/11/13 01:06:05;;;;;;;124.72;57.65;;;;;;;;;;5090277;28;20059;-61
2021/11/13 01:08:32;;;;;;;136.68;60.78;;;;;;;;;;5089237;28;20439;-62
2021/11/13 01:10:58;;;;;;;126.88;60.45;;;;;;;;;;5093628;28;20052;-61
2021/11/13 01:13:24;;;;;;;130.95;61.25;;;;;;;;;;5090641;28;20082;-62
2021/11/13 01:15:50;;;;;;;141.52;63.50;;;;;;;;;;5090910;28;20067;-62
2021/11/13 01:18:17;;;;;;;144.40;63.03;;;;;;;;;;5089755;28;20127;-62
2021/11/13 01:20:43;;;;;;;125.18;62.85;;;;;;;;;;5093559;28;20181;-61
2021/11/13 01:23:09;;;;;;;139.13;63.63;;;;;;;;;;5092737;28;20051;-62
2021/11/13 01:25:35;;;;;;;141.20;62.88;;;;;;;;;;5090591;28;20245;-62
2021/11/13 01:28:02;;;;;;;129.48;61.97;;;;;;;;;;5092057;28;20101;-62
2021/11/13 01:30:28;;;;;;;132.40;62.88;;;;;;;;;;5088360;28;20060;-62
2021/11/13 01:32:54;;;;;;;152.88;65.10;;;;;;;;;;5094934;28;20716;-62
2021/11/13 01:35:22;;;;;;;152.52;63.80;;;;;;;;;;5092522;28;20106;-62
2021/11/13 01:37:48;;;;;;;141.00;61.15;;;;;;;;;;5092878;28;20067;-62
2021/11/13 01:40:16;;;;;;;104.28;54.53;;;;;;;;;;5087640;28;20506;-61
2021/11/13 01:42:43;;;;;;;121.82;56.70;;;;;;;;;;5092174;28;20028;-62
2021/11/13 01:45:10;;;;;;;132.60;60.08;;;;;;;;;;5091216;28;20044;-62
2021/11/13 01:47:38;;;;;;;144.93;58.42;;;;;;;;;;5089252;28;20044;-62
2021/11/13 01:50:13;;;;;;;139.35;60.95;;;;;;;;;;5093698;28;20031;-62
2021/11/13 01:52:39;;;;;;;117.35;55.65;;;;;;;;;;5095064;28;20174;-62
2021/11/13 01:55:05;;;;;;;148.52;59.10;;;;;;;;;;5093898;28;20039;-62
2021/11/13 01:57:44;;;;;;;113.00;56.20;;;;;;;;;;5094449;28;20040;-62
2021/11/13 02:00:10;;;;;;;120.40;57.55;;;;;;;;;;5088673;28;20360;-61
2021/11/13 02:02:37;;;;;;;125.78;56.80;;;;;;;;;;5090149;28;20051;-62
2021/11/13 02:05:04;;;;;;;120.45;58.45;;;;;;;;;;5093703;28;20065;-62
2021/11/13 02:07:30;;;;;;;119.25;57.97;;;;;;;;;;5090217;28;20043;-62
2021/11/13 02:09:57;;;;;;;139.25;58.78;;;;;;;;;;5097321;28;20053;-62
2021/11/13 02:12:23;;;;;;;137.35;56.67;;;;;;;;;;5091802;28;20044;-62
2021/11/13 02:14:49;;;;;;;137.20;57.78;;;;;;;;;;5092632;28;20059;-62
2021/11/13 02:17:16;;;;;;;140.30;60.72;;;;;;;;;;5094898;28;20050;-62
2021/11/13 02:19:42;;;;;;;132.98;55.38;;;;;;;;;;5091307;28;20085;-62
2021/11/13 02:22:08;;;;;;;121.97;55.78;;;;;;;;;;5089943;28;20059;-61
2021/11/13 02:24:34;;;;;;;125.70;57.38;;;;;;;;;;5092646;28;20123;-62
2021/11/13 02:27:00;;;;;;;138.32;57.95;;;;;;;;;;5091850;28;20066;-62
2021/11/13 02:29:27;;;;;;;128.52;56.38;;;;;;;;;;5093561;28;20036;-62
2021/11/13 02:31:55;;;;;;;123.65;56.95;;;;;;;;;;5094285;28;20126;-62
2021/11/13 02:34:21;;;;;;;114.30;55.35;;;;;;;;;;5089828;28;20097;-62
2021/11/13 02:36:47;;;;;;;121.97;55.88;;;;;;;;;;5111556;27;20047;-62
2021/11/13 02:39:14;;;;;;;124.43;56.30;;;;;;;;;;5091777;28;20079;-62
2021/11/13 02:41:44;;;;;;;138.80;57.92;;;;;;;;;;5092504;28;20051;-62
2021/11/13 02:44:11;;;;;;;119.72;55.65;;;;;;;;;;5088793;28;20051;-62
2021/11/13 02:46:38;;;;;;;118.18;55.63;;;;;;;;;;5084511;28;20044;-62
2021/11/13 02:49:05;;;;;;;124.25;56.63;;;;;;;;;;5085671;28;20764;-62
2021/11/13 02:51:32;;;;;;;119.88;56.10;;;;;;;;;;5088654;28;20496;-62
2021/11/13 02:53:58;;;;;;;148.10;60.50;;;;;;;;;;5095381;28;20130;-62
2021/11/13 02:56:25;;;;;;;123.55;57.67;;;;;;;;;;5093000;28;20113;-62
2021/11/13 02:58:51;;;;;;;134.52;58.10;;;;;;;;;;5095428;28;20402;-62
2021/11/13 03:01:21;;;;;;;132.63;56.13;;;;;;;;;;5096243;28;20054;-62
2021/11/13 03:03:49;;;;;;;133.50;57.28;;;;;;;;;;5096554;28;20069;-63
2021/11/13 03:06:15;;;;;;;142.13;58.85;;;;;;;;;;5095384;28;20101;-61
2021/11/13 03:08:42;;;;;;;143.23;57.60;;;;;;;;;;5090760;28;20045;-62
2021/11/13 03:11:09;;;;;;;139.40;58.63;;;;;;;;;;5093404;28;20617;-61
2021/11/13 03:13:37;;;;;;;139.80;60.47;;;;;;;;;;5090927;28;20043;-62
2021/11/13 03:16:04;;;;;;;166.73;61.33;;;;;;;;;;5098983;28;20131;-62
2021/11/13 03:18:31;;;;;;;163.07;60.80;;;;;;;;;;5098415;28;20055;-62
2021/11/13 03:20:57;;;;;;;153.60;59.90;;;;;;;;;;5092398;28;20044;-62
2021/11/13 03:23:24;;;;;;;154.55;60.15;;;;;;;;;;5099805;28;20487;-62
2021/11/13 03:25:53;;;;;;;156.60;61.97;;;;;;;;;;5089734;28;20054;-62
2021/11/13 03:28:22;;;;;;;161.95;63.03;;;;;;;;;;5095430;28;20063;-62
2021/11/13 03:30:48;;;;;;;139.40;59.80;;;;;;;;;;5090264;28;20062;-62
2021/11/13 03:33:14;;;;;;;161.40;62.55;;;;;;;;;;5096915;28;20378;-62
2021/11/13 03:35:40;;;;;;;174.93;63.38;;;;;;;;;;5098113;28;20394;-61
2021/11/13 03:38:08;;;;;;;173.93;65.45;;;;;;;;;;5095765;28;20048;-62
2021/11/13 03:40:35;;;;;;;186.45;66.90;;;;;;;;;;5094873;28;20085;-61
2021/11/13 03:43:02;;;;;;;173.20;64.03;;;;;;;;;;5094220;28;20044;-62
2021/11/13 03:45:28;;;;;;;168.82;64.32;;;;;;;;;;5095580;28;20052;-62
2021/11/13 03:47:55;;;;;;;170.85;65.30;;;;;;;;;;5097553;28;20093;-62
2021/11/13 03:50:21;;;;;;;194.18;69.57;;;;;;;;;;5097984;28;20047;-62
2021/11/13 03:52:48;;;;;;;193.25;68.78;;;;;;;;;;5100117;28;20068;-62
2021/11/13 03:55:14;;;;;;;201.00;70.22;;;;;;;;;;5098262;28;20039;-62
2021/11/13 03:57:40;;;;;;;188.13;70.00;;;;;;;;;;5095365;28;20525;-62
2021/11/13 04:00:07;;;;;;;216.27;70.95;;;;;;;;;;5093720;28;20063;-62
2021/11/13 04:02:34;;;;;;;213.25;71.60;;;;;;;;;;5098841;28;20031;-62
2021/11/13 04:05:00;;;;;;;237.85;73.35;;;;;;;;;;5096941;28;20056;-62
2021/11/13 04:07:26;;;;;;;224.43;72.78;;;;;;;;;;5099118;28;20096;-62
2021/11/13 04:09:53;;;;;;;268.33;75.22;;;;;;;;;;5090088;28;20078;-61
2021/11/13 04:12:19;;;;;;;218.30;72.78;;;;;;;;;;5090711;28;20487;-62
2021/11/13 04:14:46;;;;;;;240.40;72.45;;;;;;;;;;5099379;28;20067;-62
2021/11/13 04:17:12;;;;;;;220.25;71.15;;;;;;;;;;5096934;28;20047;-62
2021/11/13 04:19:39;;;;;;;208.93;68.60;;;;;;;;;;5093348;28;20040;-62
2021/11/13 04:22:05;;;;;;;218.27;72.25;;;;;;;;;;5098347;28;20039;-62
2021/11/13 04:24:31;;;;;;;227.93;73.60;;;;;;;;;;5092690;28;20061;-62
2021/11/13 04:26:58;;;;;;;204.20;70.15;;;;;;;;;;5092894;28;20566;-61
2021/11/13 04:29:24;;;;;;;193.50;67.68;;;;;;;;;;5096630;28;20115;-62
2021/11/13 04:31:50;;;;;;;186.85;68.78;;;;;;;;;;5099702;28;20035;-62
2021/11/13 04:34:24;;;;;;;195.20;69.93;;;;;;;;;;5095994;28;20062;-62
2021/11/13 04:36:53;;;;;;;197.20;68.32;;;;;;;;;;5095340;28;20043;-62
2021/11/13 04:39:20;;;;;;;197.40;69.93;;;;;;;;;;5091524;28;20102;-61
2021/11/13 04:41:46;;;;;;;196.85;70.60;;;;;;;;;;5088898;28;20051;-62
2021/11/13 04:44:12;;;;;;;191.00;69.53;;;;;;;;;;5089787;28;20044;-61
2021/11/13 04:46:39;;;;;;;225.80;73.80;;;;;;;;;;5090499;28;20048;-62
2021/11/13 04:49:05;;;;;;;224.02;72.53;;;;;;;;;;5094302;28;20433;-62
2021/11/13 04:51:31;;;;;;;215.02;74.28;;;;;;;;;;5092888;28;20062;-62
2021/11/13 04:53:58;;;;;;;236.57;74.85;;;;;;;;;;5092329;28;20036;-62
2021/11/13 04:56:24;;;;;;;224.15;75.07;;;;;;;;;;5091034;28;20039;-62
2021/11/13 04:58:50;;;;;;;207.13;74.03;;;;;;;;;;5099469;28;20126;-62
2021/11/13 05:01:16;;;;;;;219.70;74.38;;;;;;;;;;5098690;28;20459;-62
2021/11/13 05:03:42;;;;;;;218.70;75.03;;;;;;;;;;5098711;28;20350;-62
2021/11/13 05:06:08;;;;;;;199.48;72.45;;;;;;;;;;5094277;28;20105;-62
2021/11/13 05:08:35;;;;;;;228.65;75.60;;;;;;;;;;5090789;28;20048;-62
2021/11/13 05:11:01;;;;;;;222.15;76.07;;;;;;;;;;5095072;28;20414;-62
2021/11/13 05:13:27;;;;;;;213.38;74.57;;;;;;;;;;5088857;28;20369;-62
2021/11/13 05:15:53;;;;;;;180.70;70.32;;;;;;;;;;5087878;28;20048;-62
2021/11/13 05:18:21;;;;;;;216.35;74.78;;;;;;;;;;5090512;28;20371;-62
2021/11/13 05:20:47;;;;;;;208.68;71.68;;;;;;;;;;5090448;28;20372;-62
2021/11/13 05:23:13;;;;;;;220.20;74.90;;;;;;;;;;5090611;28;20048;-62
2021/11/13 05:25:39;;;;;;;215.13;74.88;;;;;;;;;;5092140;28;20040;-62
2021/11/13 05:28:05;;;;;;;200.32;71.88;;;;;;;;;;5093963;28;21685;-62
2021/11/13 05:30:31;;;;;;;217.93;72.22;;;;;;;;;;5096251;28;20127;-62
2021/11/13 05:32:58;;;;;;;186.40;68.82;;;;;;;;;;5096831;28;20394;-61
2021/11/13 05:35:25;;;;;;;208.43;69.78;;;;;;;;;;5099614;28;20126;-62
2021/11/13 05:37:52;;;;;;;206.60;68.32;;;;;;;;;;5090911;28;20047;-62
2021/11/13 05:40:18;;;;;;;201.43;67.30;;;;;;;;;;5087657;28;20141;-62
2021/11/13 05:42:45;;;;;;;203.05;70.03;;;;;;;;;;5090943;28;20036;-62
2021/11/13 05:45:12;;;;;;;185.38;66.55;;;;;;;;;;5092706;28;20088;-62
2021/11/13 05:47:39;;;;;;;230.05;71.63;;;;;;;;;;5097311;28;20102;-62
2021/11/13 05:50:09;;;;;;;238.38;72.15;;;;;;;;;;5094177;28;20075;-62
2021/11/13 05:52:35;;;;;;;217.93;71.07;;;;;;;;;;5094797;28;20191;-62
2021/11/13 05:55:01;;;;;;;223.43;70.18;;;;;;;;;;5093936;28;20047;-62
2021/11/13 05:57:27;;;;;;;233.80;71.97;;;;;;;;;;5088139;28;20050;-62
2021/11/13 05:59:54;;;;;;;248.65;72.68;;;;;;;;;;5091054;28;20133;-62
2021/11/13 06:02:20;;;;;;;262.05;72.95;;;;;;;;;;5093028;28;20108;-62
2021/11/13 06:04:47;;;;;;;244.75;71.35;;;;;;;;;;5093127;28;20150;-62
2021/11/13 06:07:13;;;;;;;231.70;69.47;;;;;;;;;;5097704;28;20050;-62
2021/11/13 06:09:39;;;;;;;223.40;70.22;;;;;;;;;;5092747;28;20085;-62
2021/11/13 06:12:06;;;;;;;229.63;67.70;;;;;;;;;;5089431;28;20134;-62
2021/11/13 06:14:32;;;;;;;201.07;66.93;;;;;;;;;;5097891;28;20035;-62
2021/11/13 06:16:58;;;;;;;236.65;68.80;;;;;;;;;;5095249;28;20440;-62
2021/11/13 06:19:24;;;;;;;252.77;70.43;;;;;;;;;;5098390;28;20040;-61
2021/11/13 06:21:51;;;;;;;247.32;73.22;;;;;;;;;;5096657;28;20089;-63
2021/11/13 06:24:17;;;;;;;268.98;77.25;;;;;;;;;;5090930;28;20068;-62
2021/11/13 06:26:43;;;;;;;280.55;75.10;;;;;;;;;;5092111;28;20039;-62
2021/11/13 06:29:09;;;;;;;275.73;73.50;;;;;;;;;;5092265;28;20040;-62
2021/11/13 06:31:36;;;;;;;302.98;78.95;;;;;;;;;;5094623;28;20052;-62
2021/11/13 06:34:02;;;;;;;305.60;77.28;;;;;;;;;;5086977;28;20369;-62
2021/11/13 06:36:29;;;;;;;340.23;81.82;;;;;;;;;;5091771;28;20055;-62
2021/11/13 06:38:55;;;;;;;317.45;78.22;;;;;;;;;;5091942;28;20044;-62
2021/11/13 06:41:25;;;;;;;348.23;77.88;;;;;;;;;;5089029;28;20036;-62
2021/11/13 06:43:52;;;;;;;377.67;82.22;;;;;;;;;;5090566;28;20185;-62
2021/11/13 06:46:18;;;;;;;354.58;80.03;;;;;;;;;;5085071;28;20078;-62
2021/11/13 06:48:44;;;;;;;382.02;82.55;;;;;;;;;;5089892;28;20055;-62
2021/11/13 06:51:10;;;;;;;436.30;85.75;;;;;;;;;;5086914;28;20051;-62
2021/11/13 06:53:37;;;;;;;446.67;86.82;;;;;;;;;;5089944;28;20047;-62
2021/11/13 06:56:04;;;;;;;577.50;93.43;;;;;;;;;;5091586;28;20114;-62
2021/11/13 06:58:30;;;;;;;712.75;99.10;;;;;;;;;;5091278;28;20657;-62
2021/11/13 07:00:56;;;;;;;679.40;94.68;;;;;;;;;;5091304;28;20352;-62
2021/11/13 07:03:22;;;;;;;730.97;99.93;;;;;;;;;;5091916;28;20554;-62
2021/11/13 07:05:49;;;;;;;780.75;103.95;;;;;;;;;;5089890;28;20458;-63
2021/11/13 07:08:15;;;;;;;683.58;94.53;;;;;;;;;;5090581;28;20044;-62
2021/11/13 07:10:41;;;;;;;644.80;94.40;;;;;;;;;;5089264;28;20537;-62
2021/11/13 07:13:07;;;;;;;704.65;93.63;;;;;;;;;;5090581;28;20118;-62
2021/11/13 07:15:34;;;;;;;803.58;101.28;;;;;;;;;;5091416;28;20048;-62
2021/11/13 07:18:01;;;;;;;649.83;95.05;;;;;;;;;;5094956;28;20406;-62
2021/11/13 07:20:28;;;;;;;682.63;98.13;;;;;;;;;;5094082;28;20051;-62
2021/11/13 07:22:55;;;;;;;666.67;97.43;;;;;;;;;;5090721;28;20051;-61
2021/11/13 07:25:23;;;;;;;654.65;95.07;;;;;;;;;;5087003;28;20124;-61
2021/11/13 07:27:49;;;;;;;651.53;95.15;;;;;;;;;;5086943;28;20333;-62
2021/11/13 07:30:18;;;;;;;675.45;96.22;;;;;;;;;;5088754;28;20265;-62
2021/11/13 07:32:44;;;;;;;577.20;88.78;;;;;;;;;;5090501;28;20048;-62
2021/11/13 07:35:10;;;;;;;667.88;95.38;;;;;;;;;;5089675;28;20143;-62
2021/11/13 07:37:37;;;;;;;602.00;93.70;;;;;;;;;;5089243;28;20036;-62
2021/11/13 07:40:04;;;;;;;639.35;93.55;;;;;;;;;;5087445;28;20047;-62
2021/11/13 07:42:30;;;;;;;644.33;94.68;;;;;;;;;;5085547;28;20504;-62
2021/11/13 07:44:59;;;;;;;600.55;93.18;;;;;;;;;;5086916;28;20035;-63
2021/11/13 07:47:25;;;;;;;654.38;95.93;;;;;;;;;;5088763;28;20602;-62
2021/11/13 07:49:51;;;;;;;611.78;91.82;;;;;;;;;;5092649;28;20463;-63
2021/11/13 07:52:18;;;;;;;615.13;95.22;;;;;;;;;;5091292;28;20464;-62
2021/11/13 07:54:44;;;;;;;613.05;94.07;;;;;;;;;;5091305;28;20494;-63
2021/11/13 07:57:10;;;;;;;622.75;94.60;;;;;;;;;;5088369;28;20398;-62
2021/11/13 07:59:36;;;;;;;507.65;88.25;;;;;;;;;;5090116;28;20132;-82
2021/11/13 08:02:02;;;;;;;599.90;90.57;;;;;;;;;;5096246;28;20050;-62
2021/11/13 08:04:29;;;;;;;510.95;89.25;;;;;;;;;;5086288;28;20059;-63
2021/11/13 08:06:55;;;;;;;500.45;87.68;;;;;;;;;;5087732;28;20132;-62
2021/11/13 08:09:21;;;;;;;425.35;82.38;;;;;;;;;;5099425;28;20048;-62
2021/11/13 08:11:48;;;;;;;466.48;86.50;;;;;;;;;;5097058;28;20048;-62
2021/11/13 08:14:14;;;;;;;398.15;81.18;;;;;;;;;;5100016;28;20482;-62
2021/11/13 08:16:40;;;;;;;407.15;82.10;;;;;;;;;;5098074;28;20039;-62
2021/11/13 08:19:07;;;;;;;384.40;80.45;;;;;;;;;;5090949;28;20044;-62
2021/11/13 08:21:34;;;;;;;315.40;78.70;;;;;;;;;;5103988;28;20051;-62
2021/11/13 08:24:00;;;;;;;319.88;76.68;;;;;;;;;;5093784;28;20047;-62
2021/11/13 08:26:26;;;;;;;299.73;74.75;;;;;;;;;;5097585;28;20039;-62
2021/11/13 08:28:52;;;;;;;318.65;74.07;;;;;;;;;;5092592;28;20040;-62
2021/11/13 08:31:19;;;;;;;316.33;76.78;;;;;;;;;;5071859;28;20093;-62
2021/11/13 08:33:45;;;;;;;325.45;75.78;;;;;;;;;;5083734;28;20127;-62
2021/11/13 08:36:11;;;;;;;278.60;71.65;;;;;;;;;;5089468;28;20122;-62
2021/11/13 08:38:39;;;;;;;277.80;71.28;;;;;;;;;;5079770;28;20144;-63
2021/11/13 08:41:06;;;;;;;255.50;68.45;;;;;;;;;;5087088;28;20105;-62
2021/11/13 08:43:33;;;;;;;238.77;65.82;;;;;;;;;;5089196;28;20047;-62
2021/11/13 08:45:59;;;;;;;224.68;63.83;;;;;;;;;;5089271;28;20045;-63
2021/11/13 08:48:25;;;;;;;238.15;65.10;;;;;;;;;;5092226;28;20128;-62
2021/11/13 08:50:52;;;;;;;235.15;65.80;;;;;;;;;;5093189;28;20502;-62
2021/11/13 08:53:18;;;;;;;252.13;69.57;;;;;;;;;;5086708;28;20075;-62
2021/11/13 08:55:44;;;;;;;215.30;67.93;;;;;;;;;;5090257;28;20044;-62
2021/11/13 08:58:11;;;;;;;244.18;68.63;;;;;;;;;;5090364;28;20039;-62
2021/11/13 09:00:41;;;;;;;220.65;67.10;;;;;;;;;;5088326;28;20048;-62
2021/11/13 09:03:11;;;;;;;208.68;63.60;;;;;;;;;;5088675;28;20360;-62
2021/11/13 09:05:37;;;;;;;203.52;62.03;;;;;;;;;;5091829;28;20499;-62
2021/11/13 09:08:04;;;;;;;178.23;59.22;;;;;;;;;;5088527;28;20109;-62
2021/11/13 09:10:31;;;;;;;189.90;61.90;;;;;;;;;;5092814;28;20044;-62
2021/11/13 09:12:58;;;;;;;184.27;59.22;;;;;;;;;;5087578;28;20047;-62
2021/11/13 09:15:25;;;;;;;193.50;59.72;;;;;;;;;;5088732;28;20047;-62
2021/11/13 09:17:53;;;;;;;149.85;55.28;;;;;;;;;;5088578;28;20078;-62
2021/11/13 09:20:20;;;;;;;130.27;50.15;;;;;;;;;;5083058;28;20095;-63
2021/11/13 09:22:47;;;;;;;111.10;47.35;;;;;;;;;;5080427;28;20193;-61
2021/11/13 09:25:13;;;;;;;132.38;50.45;;;;;;;;;;5084695;28;20127;-61
2021/11/13 09:27:42;;;;;;;127.05;49.58;;;;;;;;;;5081992;28;20035;-61
2021/11/13 09:30:10;;;;;;;107.47;44.53;;;;;;;;;;5081458;28;20048;-61
2021/11/13 09:32:37;;;;;;;121.00;46.72;;;;;;;;;;5083384;28;20118;-61
2021/11/13 09:35:04;;;;;;;96.07;42.85;;;;;;;;;;5082642;28;20040;-61
2021/11/13 09:37:32;;;;;;;82.65;41.70;;;;;;;;;;5082736;28;20056;-66
2021/11/13 09:39:58;;;;;;;76.50;38.40;;;;;;;;;;5083056;28;20052;-61
2021/11/13 09:42:25;;;;;;;68.85;34.33;;;;;;;;;;5086461;28;20040;-62
2021/11/13 09:44:52;;;;;;;77.13;35.88;;;;;;;;;;5085141;28;20039;-61
2021/11/13 09:47:19;;;;;;;71.18;33.78;;;;;;;;;;5083887;28;20040;-62
2021/11/13 09:49:45;;;;;;;61.38;30.90;;;;;;;;;;5085358;28;20061;-61
2021/11/13 09:52:13;;;;;;;58.95;30.13;;;;;;;;;;5089408;28;20083;-62
2021/11/13 09:54:43;;;;;;;65.70;31.67;;;;;;;;;;5088819;28;20059;-62
2021/11/13 09:57:10;;;;;;;64.05;33.50;;;;;;;;;;5089477;28;20044;-62
2021/11/13 09:59:36;;;;;;;65.45;35.00;;;;;;;;;;5090600;28;20094;-62
2021/11/13 10:02:03;;;;;;;61.90;34.15;;;;;;;;;;5090391;28;20051;-62
2021/11/13 10:04:29;;;;;;;56.72;33.22;;;;;;;;;;5089634;28;20048;-62
2021/11/13 10:06:56;;;;;;;59.25;32.78;;;;;;;;;;5090757;28;20055;-62
2021/11/13 10:09:23;;;;;;;57.63;33.42;;;;;;;;;;5090867;28;20047;-61
2021/11/13 10:11:51;;;;;;;59.75;32.70;;;;;;;;;;5088228;28;20123;-62
2021/11/13 10:14:31;;;;;;;58.00;33.90;;;;;;;;;;5090601;28;20093;-62
2021/11/13 10:16:57;;;;;;;49.90;30.63;;;;;;;;;;5089546;28;20063;-62
2021/11/13 10:19:23;;;;;;;55.25;32.38;;;;;;;;;;5089515;28;20112;-62
2021/11/13 10:21:53;;;;;;;64.25;32.28;;;;;;;;;;5090861;28;20059;-62
2021/11/13 10:24:21;;;;;;;60.45;33.60;;;;;;;;;;5085950;28;20035;-62
2021/11/13 10:26:49;;;;;;;54.13;29.27;;;;;;;;;;5089773;28;20040;-62
2021/11/13 10:29:18;;;;;;;53.42;32.20;;;;;;;;;;5088915;28;20389;-61
2021/11/13 10:31:46;;;;;;;57.40;30.25;;;;;;;;;;5088032;28;20052;-62
2021/11/13 10:34:14;;;;;;;57.92;29.05;;;;;;;;;;5087040;28;20139;-62
2021/11/13 10:36:42;;;;;;;60.60;31.67;;;;;;;;;;5089963;28;20111;-62
2021/11/13 10:39:11;;;;;;;64.63;32.60;;;;;;;;;;5089270;28;20043;-61
2021/11/13 10:41:42;;;;;;;60.42;32.42;;;;;;;;;;5090409;28;20036;-62
2021/11/13 10:44:08;;;;;;;60.22;32.08;;;;;;;;;;5089816;28;20415;-62
2021/11/13 10:46:34;;;;;;;61.70;31.10;;;;;;;;;;5089022;28;20044;-61
2021/11/13 10:49:01;;;;;;;59.45;31.70;;;;;;;;;;5088309;28;20419;-62
2021/11/13 10:51:30;;;;;;;65.63;32.53;;;;;;;;;;5088526;28;20040;-61
2021/11/13 10:53:57;;;;;;;62.08;33.22;;;;;;;;;;5087948;28;20040;-62
2021/11/13 10:56:24;;;;;;;63.97;33.13;;;;;;;;;;5088733;28;20173;-62
2021/11/13 10:58:51;;;;;;;70.50;35.22;;;;;;;;;;5089153;28;20129;-62
2021/11/13 11:01:34;;;;;;;59.03;31.30;;;;;;;;;;5087149;28;20060;-62
2021/11/13 11:04:06;;;;;;;60.25;33.28;;;;;;;;;;5104821;28;20388;-62
2021/11/13 11:06:38;;;;;;;60.60;33.15;;;;;;;;;;5087204;28;20044;-62
2021/11/13 11:09:20;;;;;;;60.88;33.45;;;;;;;;;;5087677;28;20048;-62
2021/11/13 11:11:46;;;;;;;52.50;32.30;;;;;;;;;;5088900;28;20133;-62
2021/11/13 11:14:15;;;;;;;56.03;31.25;;;;;;;;;;5089363;28;20071;-62
2021/11/13 11:16:43;;;;;;;54.17;31.58;;;;;;;;;;5088278;28;20040;-61
2021/11/13 11:19:13;;;;;;;57.67;30.83;;;;;;;;;;5088657;28;20475;-62
2021/11/13 11:21:42;;;;;;;55.75;31.02;;;;;;;;;;5088026;28;20024;-84
2021/11/13 11:24:10;;;;;;;53.20;31.35;;;;;;;;;;5086747;28;20044;-62
2021/11/13 11:26:37;;;;;;;56.42;32.13;;;;;;;;;;5089492;28;20062;-62
2021/11/13 11:29:04;;;;;;;57.65;31.42;;;;;;;;;;5088873;28;20048;-62
2021/11/13 11:31:40;;;;;;;55.40;30.60;;;;;;;;;;5089630;28;20076;-62
2021/11/13 11:34:07;;;;;;;50.72;28.83;;;;;;;;;;5088651;28;20483;-62
2021/11/13 11:36:33;;;;;;;55.78;29.83;;;;;;;;;;5085944;28;20072;-62
2021/11/13 11:38:59;;;;;;;62.75;30.48;;;;;;;;;;5087590;28;20407;-62
2021/11/13 11:41:27;;;;;;;56.00;29.48;;;;;;;;;;5087909;28;20071;-61
2021/11/13 11:43:53;;;;;;;58.92;31.33;;;;;;;;;;5089143;28;20048;-61
2021/11/13 11:46:19;;;;;;;57.72;28.92;;;;;;;;;;5089708;28;20113;-62
2021/11/13 11:48:46;;;;;;;55.63;30.02;;;;;;;;;;5096330;28;20514;-62
2021/11/13 11:51:13;;;;;;;50.13;30.20;;;;;;;;;;5092868;28;20556;-61
2021/11/13 11:53:39;;;;;;;46.17;26.15;;;;;;;;;;5092018;28;20036;-62
2021/11/13 11:56:06;;;;;;;49.50;28.20;;;;;;;;;;5091808;28;20408;-61
2021/11/13 11:58:34;;;;;;;50.20;28.02;;;;;;;;;;5075152;28;20122;-62
2021/11/13 12:01:02;;;;;;;50.60;26.92;;;;;;;;;;5091928;28;20131;-62
2021/11/13 12:03:35;;;;;;;40.92;25.65;;;;;;;;;;5092403;28;20052;-68
2021/11/13 12:06:01;;;;;;;47.13;26.43;;;;;;;;;;5093064;28;20109;-62
2021/11/13 12:08:29;;;;;;;39.45;22.98;;;;;;;;;;5091460;28;20040;-62
2021/11/13 12:11:15;;;;;;;50.03;26.77;;;;;;;;;;5092238;28;20082;-62
2021/11/13 12:13:41;;;;;;;37.75;24.60;;;;;;;;;;5092212;28;20035;-62
2021/11/13 12:16:07;;;;;;;44.75;26.77;;;;;;;;;;5094387;27;20133;-62
2021/11/13 12:18:35;;;;;;;44.80;27.45;;;;;;;;;;5091698;28;20036;-62
2021/11/13 12:21:03;;;;;;;39.10;21.95;;;;;;;;;;5091877;28;20048;-61
2021/11/13 12:23:31;;;;;;;36.05;21.60;;;;;;;;;;5093876;28;20036;-62
2021/11/13 12:25:59;;;;;;;38.22;21.58;;;;;;;;;;5092198;28;20051;-62
2021/11/13 12:28:26;;;;;;;45.13;25.77;;;;;;;;;;5092027;28;20127;-61
2021/11/13 12:30:54;;;;;;;34.70;22.90;;;;;;;;;;5095031;28;20449;-61
2021/11/13 12:33:26;;;;;;;34.53;19.85;;;;;;;;;;5090582;28;20044;-62
2021/11/13 12:35:54;;;;;;;38.70;21.50;;;;;;;;;;5086579;28;20047;-62
2021/11/13 12:38:38;;;;;;;43.50;26.98;;;;;;;;;;5090773;28;20093;-62
2021/11/13 12:41:06;;;;;;;47.38;26.75;;;;;;;;;;5092853;28;20119;-61
2021/11/13 12:46:38;;;;;;;36.42;23.23;;;;;;;;;;5089648;28;20135;-62
2021/11/13 12:49:17;;;;;;;39.78;22.38;;;;;;;;;;5093392;28;20054;-61
2021/11/13 12:51:52;;;;;;;42.08;22.55;;;;;;;;;;5088391;28;20063;-66
2021/11/13 12:54:18;;;;;;;47.63;23.00;;;;;;;;;;5090795;28;20474;-61
2021/11/13 12:56:46;;;;;;;34.63;21.08;;;;;;;;;;5073547;28;20051;-61
2021/11/13 12:59:19;;;;;;;40.58;23.08;;;;;;;;;;5090118;28;20118;-62
2021/11/13 13:01:52;;;;;;;51.47;24.30;;;;;;;;;;5090478;28;20509;-61
2021/11/13 13:04:19;;;;;;;40.67;23.15;;;;;;;;;;5091747;28;20120;-61
2021/11/13 13:06:46;;;;;;;44.53;24.40;;;;;;;;;;5090848;28;20102;-61
2021/11/13 13:09:14;;;;;;;43.92;23.90;;;;;;;;;;5090593;28;20424;-61
2021/11/13 13:11:51;;;;;;;40.65;22.40;;;;;;;;;;5091114;28;20040;-65
2021/11/13 13:14:19;;;;;;;41.85;21.58;;;;;;;;;;5090759;28;20160;-64
2021/11/13 13:16:45;;;;;;;44.97;21.50;;;;;;;;;;5091544;28;20036;-64
2021/11/13 13:19:12;;;;;;;40.15;21.60;;;;;;;;;;5091837;28;20048;-64
2021/11/13 13:21:39;;;;;;;40.13;20.85;;;;;;;;;;5090375;28;20099;-64
2021/11/13 13:24:10;;;;;;;42.88;20.83;;;;;;;;;;5091548;28;20052;-63
2021/11/13 13:26:36;;;;;;;30.75;18.75;;;;;;;;;;5091309;28;20138;-62
2021/11/13 13:29:09;;;;;;;33.78;19.25;;;;;;;;;;5088611;28;20052;-62
2021/11/13 13:31:35;;;;;;;36.50;20.27;;;;;;;;;;5089997;28;20105;-62
2021/11/13 13:34:02;;;;;;;40.03;20.92;;;;;;;;;;5090862;28;20059;-62
2021/11/13 13:36:29;;;;;;;37.28;21.38;;;;;;;;;;5090731;28;20568;-62
2021/11/13 13:38:56;;;;;;;36.38;19.65;;;;;;;;;;5091169;28;20055;-62
2021/11/13 13:41:23;;;;;;;38.40;21.70;;;;;;;;;;5090300;28;20093;-62
2021/11/13 13:43:51;;;;;;;35.92;20.60;;;;;;;;;;5089519;28;20458;-62
2021/11/13 13:46:19;;;;;;;32.88;19.63;;;;;;;;;;5090909;28;20066;-62
2021/11/13 13:48:48;;;;;;;38.15;19.58;;;;;;;;;;5089123;28;20044;-62
2021/11/13 13:51:14;;;;;;;36.05;18.85;;;;;;;;;;5089650;28;20083;-62
2021/11/13 13:53:45;;;;;;;30.02;19.38;;;;;;;;;;5089726;28;20036;-62
2021/11/13 13:56:20;;;;;;;32.58;18.30;;;;;;;;;;5089754;28;20510;-62
2021/11/13 13:58:46;;;;;;;29.23;18.15;;;;;;;;;;5090926;28;20415;-62
2021/11/13 14:01:12;;;;;;;29.25;17.13;;;;;;;;;;5091060;28;20399;-62
2021/11/13 14:03:38;;;;;;;26.52;16.67;;;;;;;;;;5090048;28;20048;-62
2021/11/13 14:06:05;;;;;;;25.17;16.30;;;;;;;;;;5089086;28;20117;-62
2021/11/13 14:08:32;;;;;;;29.80;17.25;;;;;;;;;;5090822;28;20472;-63
2021/11/13 14:10:59;;;;;;;29.55;15.57;;;;;;;;;;5087319;28;20048;-62